Time;durP1;ratioP1;P1;durP2;ratioP2;P2;SDS_P1;SDS_P2;PMS_P1;PMS_P2;Temp;Humidity;BMP_temperature;BMP_pressure;BME280_temperature;BME280_humidity;BME280_pressure;Samples;Min_cycle;Max_cycle;Signal;HPM_P1;HPM_P2
2021/01/20 00:01:58;;;;;;;;;;;;;;;0.51;72.75;96543.94;1767632;80;27504;-86
2021/01/20 00:04:25;;;;;;;;;;;;;;;0.51;72.84;96539.95;1788878;79;26109;-85
2021/01/20 00:06:52;;;;;;;;;;;;;;;0.52;72.85;96546.09;1769002;80;25730;-86
2021/01/20 00:09:19;;;;;;;;;;;;;;;0.52;72.87;96542.11;1787107;78;25698;-86
2021/01/20 00:11:46;;;;;;;;;;;;;;;0.50;72.85;96538.78;1788924;78;25280;-85
2021/01/20 00:14:14;;;;;;;;;;;;;;;0.54;73.00;96544.10;1783875;78;27388;-84
2021/01/20 00:16:41;;;;;;;;;;;;;;;0.56;72.94;96544.77;1772432;80;25916;-86
2021/01/20 00:19:08;;;;;;;;;;;;;;;0.56;73.06;96550.08;1788808;78;25678;-85
2021/01/20 00:21:36;;;;;;;;;;;;;;;0.56;73.14;96546.92;1788847;79;26892;-85
2021/01/20 00:24:03;;;;;;;;;;;;;;;0.58;73.20;96547.58;1766804;78;25768;-85
2021/01/20 00:26:30;;;;;;;;;;;;;;;0.63;73.29;96553.70;1788848;78;27445;-85
2021/01/20 00:28:57;;;;;;;;;;;;;;;0.63;73.17;96553.70;1769302;78;25777;-85
2021/01/20 00:31:24;;;;;;;;;;;;;;;0.62;73.14;96546.72;1786920;78;25734;-85
2021/01/20 00:33:51;;;;;;;;;;;;;;;0.60;72.99;96550.08;1788800;78;25814;-85
2021/01/20 00:36:18;;;;;;;;;;;;;;;0.62;73.33;96551.53;1766858;78;25814;-85
2021/01/20 00:38:45;;;;;;;;;;;;;;;0.62;73.43;96562.66;1788821;79;27492;-85
2021/01/20 00:41:12;;;;;;;;;;;;;;;0.62;73.49;96563.48;1788740;78;25741;-85
2021/01/20 00:43:39;;;;;;;;;;;;;;;0.63;73.51;96564.32;1768605;78;25818;-85
2021/01/20 00:46:06;;;;;;;;;;;;;;;0.62;73.55;96569.30;1787403;78;26478;-85
2021/01/20 00:48:33;;;;;;;;;;;;;;;0.62;73.64;96567.97;1771296;80;25842;-85
2021/01/20 00:50:59;;;;;;;;;;;;;;;0.62;73.60;96565.31;1779561;78;27696;-85
2021/01/20 00:53:26;;;;;;;;;;;;;;;0.60;73.76;96566.01;1757639;78;26324;-85
2021/01/20 00:55:53;;;;;;;;;;;;;;;0.53;73.77;96559.70;1782164;78;25753;-85
2021/01/20 00:58:20;;;;;;;;;;;;;;;0.45;73.91;96565.03;1776640;80;26100;-86
2021/01/20 01:00:47;;;;;;;;;;;;;;;0.47;74.09;96555.08;1770769;79;25798;-84
2021/01/20 01:03:14;;;;;;;;;;;;;;;0.49;74.12;96556.55;1736507;81;27557;-85
2021/01/20 01:05:43;;;;;;;;;;;;;;;0.46;74.16;96557.41;1733250;81;25824;-85
2021/01/20 01:08:10;;;;;;;;;;;;;;;0.45;74.23;96552.59;1742360;81;25840;-85
2021/01/20 01:10:37;;;;;;;;;;;;;;;0.45;74.24;96554.42;1748272;79;26549;-84
2021/01/20 01:13:04;;;;;;;;;;;;;;;0.49;74.38;96563.69;1733806;81;26020;-85
2021/01/20 01:15:31;;;;;;;;;;;;;;;0.49;74.38;96566.34;1733784;81;27503;-85
2021/01/20 01:17:58;;;;;;;;;;;;;;;0.49;74.36;96568.99;1735946;80;25530;-86
2021/01/20 01:20:25;;;;;;;;;;;;;;;0.53;74.40;96567.17;1753556;80;25891;-85
2021/01/20 01:22:52;;;;;;;;;;;;;;;0.56;74.44;96564.68;1733717;81;25802;-86
2021/01/20 01:25:19;;;;;;;;;;;;;;;0.56;74.36;96575.30;1704175;81;25817;-85
2021/01/20 01:27:46;;;;;;;;;;;;;;;0.55;74.31;96571.81;1734401;81;27301;-85
2021/01/20 01:30:13;;;;;;;;;;;;;;;0.58;74.28;96570.66;1756177;81;25722;-85
2021/01/20 01:32:40;;;;;;;;;;;;;;;0.55;74.36;96560.36;1741163;81;25743;-85
2021/01/20 01:35:07;;;;;;;;;;;;;;;0.52;74.37;96568.16;1736093;81;26455;-86
2021/01/20 01:37:34;;;;;;;;;;;;;;;0.55;74.54;96560.36;1733799;79;25762;-85
2021/01/20 01:40:01;;;;;;;;;;;;;;;0.57;74.67;96565.02;1733710;79;27335;-85
2021/01/20 01:42:29;;;;;;;;;;;;;;;0.54;74.62;96563.52;1733706;81;25942;-85
2021/01/20 01:44:56;;;;;;;;;;;;;;;0.52;74.68;96560.20;1740421;81;25679;-84
2021/01/20 01:47:24;;;;;;;;;;;;;;;0.55;74.58;96563.02;1759095;79;26524;-85
2021/01/20 01:49:55;;;;;;;;;;;;;;;0.55;74.52;96546.59;1733731;81;25826;-84
2021/01/20 01:52:20;;;;;;;;;;;;;;;0.56;74.54;96555.39;1733383;81;28476;-85
2021/01/20 01:54:47;;;;;;;;;;;;;;;0.53;74.72;96547.75;1733638;81;26270;-85
2021/01/20 01:57:14;;;;;;;;;;;;;;;0.54;74.75;96554.72;1733759;81;25860;-85
2021/01/20 01:59:41;;;;;;;;;;;;;;;0.59;74.81;96563.02;1747133;79;26504;-84
2021/01/20 02:02:08;;;;;;;;;;;;;;;0.63;74.78;96558.51;1740812;81;25793;-84
2021/01/20 02:04:35;;;;;;;;;;;;;;;0.66;74.75;96555.52;1787240;80;27598;-86
2021/01/20 02:07:02;;;;;;;;;;;;;;;0.68;74.68;96554.03;1791754;80;25768;-85
2021/01/20 02:09:29;;;;;;;;;;;;;;;0.68;74.58;96548.71;1769795;80;25378;-84
2021/01/20 02:12:16;;;;;;;;;;;;;;;0.70;74.50;96552.03;1791830;80;25820;-85
2021/01/20 02:15:05;;;;;;;;;;;;;;;0.72;74.57;96551.37;1792038;80;25759;-85
2021/01/20 02:17:38;;;;;;;;;;;;;;;0.76;74.53;96557.14;1792036;80;27502;-85
2021/01/20 02:20:27;;;;;;;;;;;;;;;0.78;74.48;96553.82;1769240;79;25863;-85
2021/01/20 02:22:56;;;;;;;;;;;;;;;0.80;74.40;96562.45;1769063;80;26238;-84
2021/01/20 02:25:36;;;;;;;;;;;;;;;0.82;74.40;96563.95;1770902;80;25781;-84
2021/01/20 02:28:14;;;;;;;;;;;;;;;0.82;74.25;96565.27;1792023;80;25837;-85
2021/01/20 02:30:43;;;;;;;;;;;;;;;0.82;74.24;96565.77;1792038;79;27489;-85
2021/01/20 02:33:12;;;;;;;;;;;;;;;0.83;74.24;96570.92;1758889;80;26061;-84
2021/01/20 02:35:40;;;;;;;;;;;;;;;0.85;74.24;96571.55;1792018;80;25779;-85
2021/01/20 02:38:08;;;;;;;;;;;;;;;0.88;74.19;96565.08;1772962;80;26321;-84
2021/01/20 02:40:35;;;;;;;;;;;;;;;0.92;74.19;96573.88;1760834;80;26188;-85
2021/01/20 02:43:02;;;;;;;;;;;;;;;0.94;74.14;96578.52;1773172;80;27562;-84
2021/01/20 02:45:29;;;;;;;;;;;;;;;0.96;74.11;96579.18;1791920;80;25756;-84
2021/01/20 02:47:57;;;;;;;;;;;;;;;0.96;74.09;96581.84;1791911;80;25842;-83
2021/01/20 02:50:24;;;;;;;;;;;;;;;0.94;74.12;96586.49;1791897;80;25719;-85
2021/01/20 02:53:06;;;;;;;;;;;;;;;0.90;74.03;96581.68;1762419;79;26053;-85
2021/01/20 02:55:34;;;;;;;;;;;;;;;0.88;74.07;96583.17;1780316;80;28448;-85
2021/01/20 02:58:09;;;;;;;;;;;;;;;0.90;74.18;96589.15;1761304;79;25912;-86
2021/01/20 03:00:38;;;;;;;;;;;;;;;0.93;74.14;96578.19;1779630;80;26435;-85
2021/01/20 03:03:07;;;;;;;;;;;;;;;0.95;74.14;96584.16;1743117;79;26840;-85
2021/01/20 03:05:35;;;;;;;;;;;;;;;0.99;74.18;96586.79;1771423;81;25850;-86
2021/01/20 03:08:02;;;;;;;;;;;;;;;1.01;74.24;96581.30;1755717;81;28666;-85
2021/01/20 03:10:29;;;;;;;;;;;;;;;0.99;74.16;96583.30;1788031;80;25819;-85
2021/01/20 03:12:56;;;;;;;;;;;;;;;0.96;74.17;96583.67;1762233;80;25775;-85
2021/01/20 03:15:29;;;;;;;;;;;;;;;0.93;74.22;96588.81;1753135;80;25824;-85
2021/01/20 03:17:56;;;;;;;;;;;;;;;0.95;74.21;96585.99;1798365;79;25747;-85
2021/01/20 03:20:23;;;;;;;;;;;;;;;0.96;74.27;96574.37;1807066;79;27490;-85
2021/01/20 03:22:50;;;;;;;;;;;;;;;1.00;74.32;96573.83;1809534;78;25892;-84
2021/01/20 03:25:17;;;;;;;;;;;;;;;1.00;74.33;96575.16;1759609;80;25930;-84
2021/01/20 03:27:44;;;;;;;;;;;;;;;0.99;74.28;96584.13;1788470;80;25635;-84
2021/01/20 03:30:12;;;;;;;;;;;;;;;1.00;74.30;96584.46;1775391;79;25831;-84
2021/01/20 03:32:39;;;;;;;;;;;;;;;0.99;74.30;96576.16;1753121;80;27554;-85
2021/01/20 03:35:06;;;;;;;;;;;;;;;1.03;74.42;96576.16;1783092;80;25379;-86
2021/01/20 03:37:33;;;;;;;;;;;;;;;1.07;74.36;96577.48;1773370;80;25712;-84
2021/01/20 03:40:00;;;;;;;;;;;;;;;1.08;74.22;96576.48;1785877;79;25735;-84
2021/01/20 03:42:28;;;;;;;;;;;;;;;1.08;74.15;96576.48;1754957;80;26269;-85
2021/01/20 03:44:54;;;;;;;;;;;;;;;1.05;74.16;96583.45;1771050;80;27769;-84
2021/01/20 03:47:21;;;;;;;;;;;;;;;1.08;74.32;96586.28;1794973;79;25809;-85
2021/01/20 03:49:48;;;;;;;;;;;;;;;1.08;74.22;96588.44;1796140;79;25879;-84
2021/01/20 03:52:15;;;;;;;;;;;;;;;1.09;74.26;96584.75;1775568;79;25792;-85
2021/01/20 03:54:42;;;;;;;;;;;;;;;1.12;74.30;96587.57;1793618;79;25833;-84
2021/01/20 03:57:09;;;;;;;;;;;;;;;1.09;74.22;96584.75;1778390;79;27704;-85
2021/01/20 03:59:36;;;;;;;;;;;;;;;1.12;74.29;96588.07;1774980;79;25804;-84
2021/01/20 04:02:05;;;;;;;;;;;;;;;1.15;74.35;96585.91;1801175;79;25848;-84
2021/01/20 04:04:32;;;;;;;;;;;;;;;1.22;74.39;96591.34;1789348;79;26836;-84
2021/01/20 04:07:01;;;;;;;;;;;;;;;1.23;74.22;96598.32;1794201;79;25328;-85
2021/01/20 04:09:28;;;;;;;;;;;;;;;1.20;74.16;96588.06;1768488;79;27489;-84
2021/01/20 04:11:55;;;;;;;;;;;;;;;1.23;74.18;96591.67;1768424;79;25310;-85
2021/01/20 04:14:23;;;;;;;;;;;;;;;1.28;74.21;96599.97;1777320;79;26466;-85
2021/01/20 04:16:50;;;;;;;;;;;;;;;1.29;74.10;96596.31;1781420;79;25801;-84
2021/01/20 04:19:17;;;;;;;;;;;;;;;1.30;74.13;96596.64;1771097;79;25966;-84
2021/01/20 04:21:43;;;;;;;;;;;;;;;1.31;74.10;96598.30;1789356;79;27762;-84
2021/01/20 04:24:10;;;;;;;;;;;;;;;1.29;74.10;96602.96;1784970;79;25417;-84
2021/01/20 04:26:38;;;;;;;;;;;;;;;1.29;74.07;96604.30;1768590;79;26310;-85
2021/01/20 04:29:05;;;;;;;;;;;;;;;1.30;74.13;96601.97;1790174;79;25767;-84
2021/01/20 04:31:31;;;;;;;;;;;;;;;1.30;74.16;96604.13;1800016;79;26008;-84
2021/01/20 04:33:58;;;;;;;;;;;;;;;1.35;74.18;96605.74;1799902;79;27503;-84
2021/01/20 04:36:25;;;;;;;;;;;;;;;1.38;74.14;96599.25;1793326;79;26036;-84
2021/01/20 04:38:52;;;;;;;;;;;;;;;1.36;74.08;96600.75;1784783;79;25786;-84
2021/01/20 04:41:19;;;;;;;;;;;;;;;1.38;74.09;96601.41;1800019;79;25656;-85
2021/01/20 04:43:46;;;;;;;;;;;;;;;1.39;74.09;96600.91;1800097;79;25758;-84
2021/01/20 04:46:13;;;;;;;;;;;;;;;1.45;74.10;96597.55;1777740;79;27637;-85
2021/01/20 04:48:40;;;;;;;;;;;;;;;1.47;74.09;96597.38;1793627;79;25942;-84
2021/01/20 04:51:08;;;;;;;;;;;;;;;1.52;74.11;96594.53;1793729;79;25761;-85
2021/01/20 04:53:38;;;;;;;;;;;;;;;1.54;74.07;96599.18;1777881;79;26318;-86
2021/01/20 04:56:12;;;;;;;;;;;;;;;1.56;74.00;96595.85;1781223;79;25373;-85
2021/01/20 04:58:39;;;;;;;;;;;;;;;1.58;73.95;96596.98;1798644;79;27500;-85
2021/01/20 05:01:06;;;;;;;;;;;;;;;1.57;73.86;96600.14;1782127;79;25823;-85
2021/01/20 05:03:33;;;;;;;;;;;;;;;1.56;73.87;96604.33;1769426;79;25633;-85
2021/01/20 05:06:00;;;;;;;;;;;;;;;1.59;73.91;96606.12;1756935;79;25912;-85
2021/01/20 05:08:27;;;;;;;;;;;;;;;1.60;73.92;96603.78;1767848;79;25881;-85
2021/01/20 05:10:54;;;;;;;;;;;;;;;1.59;73.90;96612.77;1761659;79;27694;-85
2021/01/20 05:13:28;;;;;;;;;;;;;;;1.58;73.92;96608.45;1741038;79;25751;-85
2021/01/20 05:15:56;;;;;;;;;;;;;;;1.56;73.95;96603.83;1753414;79;25796;-85
2021/01/20 05:18:23;;;;;;;;;;;;;;;1.57;74.01;96617.43;1751943;79;25781;-85
2021/01/20 05:20:51;;;;;;;;;;;;;;;1.60;73.99;96610.94;1744283;79;26054;-85
2021/01/20 05:23:22;;;;;;;;;;;;;;;1.62;74.05;96610.27;1761290;79;28503;-85
2021/01/20 05:25:50;;;;;;;;;;;;;;;1.65;74.11;96605.94;1740611;79;25836;-84
2021/01/20 05:28:23;;;;;;;;;;;;;;;1.68;74.13;96610.41;1753185;79;25780;-85
2021/01/20 05:30:55;;;;;;;;;;;;;;;1.67;74.10;96614.58;1750993;79;25702;-85
2021/01/20 05:33:27;;;;;;;;;;;;;;;1.65;74.14;96620.06;1751819;79;25871;-85
2021/01/20 05:36:09;;;;;;;;;;;;;;;1.63;74.16;96623.89;1750506;79;27594;-84
2021/01/20 05:38:46;;;;;;;;;;;;;;;1.66;74.32;96622.23;1741267;79;26127;-84
2021/01/20 05:41:18;;;;;;;;;;;;;;;1.73;74.39;96624.00;1740007;79;25854;-85
2021/01/20 05:43:46;;;;;;;;;;;;;;;1.74;74.30;96629.65;1735585;79;25768;-85
2021/01/20 05:46:13;;;;;;;;;;;;;;;1.75;74.27;96628.65;1741151;79;25756;-85
2021/01/20 05:48:49;;;;;;;;;;;;;;;1.75;74.30;96628.65;1740746;79;27543;-84
2021/01/20 05:51:16;;;;;;;;;;;;;;;1.75;74.32;96637.13;1740129;79;26189;-84
2021/01/20 05:53:54;;;;;;;;;;;;;;;1.76;74.36;96640.95;1755227;79;26293;-84
2021/01/20 05:56:29;;;;;;;;;;;;;;;1.78;74.36;96642.94;1771402;80;25854;-84
2021/01/20 05:58:58;;;;;;;;;;;;;;;1.79;74.42;96643.27;1771296;79;42999;-83
2021/01/20 06:01:26;;;;;;;;;;;;;;;1.80;74.46;96643.59;1771683;80;28659;-83
2021/01/20 06:03:54;;;;;;;;;;;;;;;1.81;74.45;96646.56;1775819;80;26146;-84
2021/01/20 06:06:21;;;;;;;;;;;;;;;1.83;74.46;96642.89;1780776;79;25759;-84
2021/01/20 06:08:49;;;;;;;;;;;;;;;1.83;74.50;96640.23;1777536;80;25759;-84
2021/01/20 06:11:15;;;;;;;;;;;;;;;1.83;74.51;96645.06;1779061;80;25974;-83
2021/01/20 06:13:42;;;;;;;;;;;;;;;1.84;74.53;96637.41;1779297;80;27487;-83
2021/01/20 06:16:16;;;;;;;;;;;;;;;1.84;74.52;96637.41;1792261;80;25767;-83
2021/01/20 06:18:48;;;;;;;;;;;;;;;1.84;74.54;96637.41;1793307;80;25308;-83
2021/01/20 06:21:17;;;;;;;;;;;;;;;1.86;74.52;96643.88;1772701;80;25798;-83
2021/01/20 06:23:51;;;;;;;;;;;;;;;1.89;74.59;96644.88;1771814;79;25835;-83
2021/01/20 06:26:18;;;;;;;;;;;;;;;;;;1747009;81;27530;-83
2021/01/20 06:28:50;;;;;;;;;;;;;;;1.95;74.61;96652.14;1771618;81;25830;-83
2021/01/20 06:31:17;;;;;;;;;;;;;;;1.94;74.55;96651.30;1771649;81;25734;-84
2021/01/20 06:33:45;;;;;;;;;;;;;;;1.92;74.57;96647.19;1771706;81;26352;-83
2021/01/20 06:36:32;;;;;;;;;;;;;;;1.96;74.63;96659.12;1789305;80;25756;-83
2021/01/20 06:38:59;;;;;;;;;;;;;;;2.00;74.61;96652.45;1793369;79;27509;-84
2021/01/20 06:41:37;;;;;;;;;;;;;;;2.05;74.59;96659.42;1777917;80;25853;-83
2021/01/20 06:44:10;;;;;;;;;;;;;;;2.06;74.54;96667.20;1781338;80;25788;-83
2021/01/20 06:46:37;;;;;;;;;;;;;;;2.10;74.53;96669.84;1771672;81;26403;-83
2021/01/20 06:49:05;;;;;;;;;;;;;;;2.09;74.49;96670.02;1771738;81;25777;-84
2021/01/20 06:51:33;;;;;;;;;;;;;;;2.11;74.49;96676.00;1771794;81;27486;-83
2021/01/20 06:54:04;;;;;;;;;;;;;;;2.14;74.52;96679.15;1771588;81;25818;-83
2021/01/20 06:56:43;;;;;;;;;;;;;;;2.16;74.54;96682.47;1773396;80;25790;-83
2021/01/20 06:59:25;;;;;;;;;;;;;;;2.18;74.56;96687.59;1783153;79;25811;-83
2021/01/20 07:02:09;;;;;;;;;;;;;;;2.21;74.53;96690.41;1771785;81;25729;-82
2021/01/20 07:04:45;;;;;;;;;;;;;;;2.20;74.46;96692.24;1769184;81;27517;-83
2021/01/20 07:07:14;;;;;;;;;;;;;;;2.20;74.47;96693.58;1796481;79;25771;-82
2021/01/20 07:09:53;;;;;;;;;;;;;;;2.25;74.49;96697.05;1797311;79;25776;-82
2021/01/20 07:12:21;;;;;;;;;;;;;;;2.22;74.44;96689.41;1766065;79;25601;-85
2021/01/20 07:14:50;;;;;;;;;;;;;;;2.26;74.42;96690.22;1765799;79;25728;-81
2021/01/20 07:17:18;;;;;;;;;;;;;;;2.29;74.45;96691.20;1787819;79;27506;-82
2021/01/20 07:19:46;;;;;;;;;;;;;;;2.33;74.48;96695.16;1782803;79;25817;-83
2021/01/20 07:22:14;;;;;;;;;;;;;;;2.38;74.42;96694.63;1797241;79;25385;-83
2021/01/20 07:24:41;;;;;;;;;;;;;;;2.41;74.42;96695.62;1797236;79;25823;-82
2021/01/20 07:27:13;;;;;;;;;;;;;;;2.45;74.40;96702.23;1797351;79;25732;-83
2021/01/20 07:29:40;;;;;;;;;;;;;;;2.48;74.37;96704.04;1790180;79;28548;-82
2021/01/20 07:32:08;;;;;;;;;;;;;;;2.52;74.32;96697.36;1782654;79;26168;-81
2021/01/20 07:34:38;;;;;;;;;;;;;;;2.58;74.32;96704.30;1797268;79;25859;-82
2021/01/20 07:37:13;;;;;;;;;;;;;;;2.65;74.30;96696.76;1782203;79;26456;-82
2021/01/20 07:39:41;;;;;;;;;;;;;;;2.70;74.26;96697.53;1765779;79;26019;-82
2021/01/20 07:42:09;;;;;;;;;;;;;;;2.78;74.18;96694.79;1771916;79;27501;-81
2021/01/20 07:44:39;;;;;;;;;;;;;;;2.82;74.15;96696.09;1778033;79;25803;-81
2021/01/20 07:47:08;;;;;;;;;;;;;;;2.87;74.10;96697.73;1778561;79;25767;-81
2021/01/20 07:49:36;;;;;;;;;;;;;;;2.92;74.03;96707.84;1786279;79;25751;-81
2021/01/20 07:52:08;;;;;;;;;;;;;;;2.96;73.99;96709.97;1797403;79;25915;-82
2021/01/20 07:54:44;;;;;;;;;;;;;;;2.98;73.90;96709.80;1775900;79;27505;-81
2021/01/20 07:57:17;;;;;;;;;;;;;;;3.03;73.89;96719.39;1777717;79;25823;-81
2021/01/20 07:59:44;;;;;;;;;;;;;;;3.05;73.84;96726.20;1796627;79;25761;-81
2021/01/20 08:02:15;;;;;;;;;;;;;;;3.08;73.78;96723.19;1801601;79;25736;-81
2021/01/20 08:04:43;;;;;;;;;;;;;;;3.08;73.73;96716.52;1780583;79;25753;-82
2021/01/20 08:07:10;;;;;;;;;;;;;;;3.12;73.77;96715.66;1786304;80;27482;-81
2021/01/20 08:09:43;;;;;;;;;;;;;;;3.15;73.69;96720.11;1793510;79;25795;-81
2021/01/20 08:12:14;;;;;;;;;;;;;;;3.15;73.63;96721.44;1793428;80;25712;-81
2021/01/20 08:14:43;;;;;;;;;;;;;;;3.17;73.65;96722.09;1793322;79;25794;-82
2021/01/20 08:17:12;;;;;;;;;;;;;;;3.21;73.61;96732.73;1793655;79;25915;-82
2021/01/20 08:19:40;;;;;;;;;;;;;;;3.23;73.60;96732.05;1771250;80;27511;-82
2021/01/20 08:22:13;;;;;;;;;;;;;;;3.27;73.60;96740.49;1784174;80;26231;-82
2021/01/20 08:24:50;;;;;;;;;;;;;;;3.32;73.61;96744.79;1764046;80;25852;-83
2021/01/20 08:27:30;;;;;;;;;;;;;;;3.35;73.57;96743.60;1790252;80;25718;-84
2021/01/20 08:30:00;;;;;;;;;;;;;;;3.40;73.54;96751.37;1765645;79;25787;-84
2021/01/20 08:32:27;;;;;;;;;;;;;;;3.46;73.53;96752.48;1768916;81;27724;-84
2021/01/20 08:34:55;;;;;;;;;;;;;;;3.47;73.47;96751.48;1739926;81;26028;-86
2021/01/20 08:37:37;;;;;;;;;;;;;;;3.50;73.47;96741.78;1739744;81;26167;-87
2021/01/20 08:40:05;;;;;;;;;;;;;;;3.52;73.47;96745.07;1758901;80;26725;-86
2021/01/20 08:42:39;;;;;;;;;;;;;;;3.54;73.45;96749.22;1773962;80;25708;-88
2021/01/20 08:45:10;;;;;;;;;;;;;;;3.60;73.45;96755.68;1774114;80;27503;-87
2021/01/20 08:47:59;;;;;;;;;;;;;;;3.65;73.46;96754.61;1774124;80;26409;-88
2021/01/20 08:50:44;;;;;;;;;;;;;;;3.72;73.38;96752.88;1756106;80;25781;-88
2021/01/20 08:53:26;;;;;;;;;;;;;;;3.82;73.41;96762.77;1714567;81;26456;-90
2021/01/20 08:55:55;;;;;;;;;;;;;;;3.92;73.28;96749.95;1758675;80;25681;-89
2021/01/20 08:58:31;;;;;;;;;;;;;;;4.01;73.24;96753.84;1768755;79;27502;-87
2021/01/20 09:01:02;;;;;;;;;;;;;;;4.13;73.23;96753.69;1790265;80;25813;-88
2021/01/20 09:03:35;;;;;;;;;;;;;;;4.23;73.13;96758.23;1770354;80;25936;-86
2021/01/20 09:06:05;;;;;;;;;;;;;;;4.28;73.03;96749.16;1757651;80;26363;-89
2021/01/20 09:08:35;;;;;;;;;;;;;;;4.34;72.92;96754.59;1806346;79;26157;-92
2021/01/20 09:11:03;;;;;;;;;;;;;;;4.36;72.81;96754.37;1806423;79;27488;-85
2021/01/20 09:13:30;;;;;;;;;;;;;;;4.41;72.82;96758.66;1798941;79;25376;-89
2021/01/20 09:15:57;;;;;;;;;;;;;;;4.47;72.73;96754.42;1763653;80;25797;-86
2021/01/20 09:18:27;;;;;;;;;;;;;;;4.52;72.67;96762.17;1753559;80;26443;-89
2021/01/20 09:20:55;;;;;;;;;;;;;;;4.56;72.57;96760.79;1779322;79;25799;-92
2021/01/20 09:23:23;;;;;;;;;;;;;;;4.53;72.36;96767.84;1775032;80;27445;-91
2021/01/20 09:25:50;;;;;;;;;;;;;;;4.54;72.37;96766.00;1758094;81;25433;-92
2021/01/20 09:28:17;;;;;;;;;;;;;;;4.61;72.24;96763.70;1742950;81;25760;-87
2021/01/20 09:30:45;;;;;;;;;;;;;;;4.55;72.15;96759.13;1771091;79;25762;-88
2021/01/20 09:33:12;;;;;;;;;;;;;;;4.57;72.24;96754.43;1779751;79;25690;-92
2021/01/20 09:35:40;;;;;;;;;;;;;;;4.57;72.30;96757.10;1801655;79;27505;-89
2021/01/20 09:38:07;;;;;;;;;;;;;;;4.64;72.28;96741.95;1797127;79;25828;-87
2021/01/20 09:40:35;;;;;;;;;;;;;;;4.75;72.35;96750.47;1797201;79;25762;-84
2021/01/20 09:43:02;;;;;;;;;;;;;;;4.82;72.13;96752.72;1774951;79;25811;-85
2021/01/20 09:45:30;;;;;;;;;;;;;;;4.81;72.06;96756.41;1797668;79;25803;-88
2021/01/20 09:48:01;;;;;;;;;;;;;;;4.83;71.91;96757.85;1790931;79;27504;-87
2021/01/20 09:50:33;;;;;;;;;;;;;;;4.79;71.78;96757.94;1766244;79;25762;-86
2021/01/20 09:52:58;;;;;;;;;;;;;;;4.79;71.85;96753.92;1787736;79;25760;-86
2021/01/20 09:55:25;;;;;;;;;;;;;;;4.77;71.85;96754.63;1772220;79;26022;-86
2021/01/20 09:57:52;;;;;;;;;;;;;;;4.74;71.65;96767.02;1771281;79;25772;-86
2021/01/20 10:00:20;;;;;;;;;;;;;;;4.70;71.75;96775.13;1784576;79;28878;-88
2021/01/20 10:02:47;;;;;;;;;;;;;;;4.74;71.79;96771.55;1765983;79;25901;-87
2021/01/20 10:05:14;;;;;;;;;;;;;;;4.75;71.74;96770.53;1796166;79;25861;-87
2021/01/20 10:07:44;;;;;;;;;;;;;;;4.80;71.75;96770.80;1779708;79;26330;-91
2021/01/20 10:10:13;;;;;;;;;;;;;;;4.75;71.69;96765.18;1787590;79;26158;-92
2021/01/20 10:12:40;;;;;;;;;;;;;;;4.75;71.70;96758.50;1772005;79;27507;-92
2021/01/20 10:15:11;;;;;;;;;;;;;;;4.77;71.66;96757.80;1787123;80;26331;-94
2021/01/20 10:17:38;;;;;;;;;;;;;;;4.82;71.71;96750.05;1772238;79;25844;-89
2021/01/20 10:20:06;;;;;;;;;;;;;;;4.81;71.63;96753.23;1772145;79;25643;-91
2021/01/20 10:22:33;;;;;;;;;;;;;;;4.86;71.59;96744.61;1800290;79;26113;-89
2021/01/20 10:25:00;;;;;;;;;;;;;;;4.92;71.47;96749.21;1786792;79;28403;-94
2021/01/20 10:27:27;;;;;;;;;;;;;;;4.98;71.44;96747.09;1793727;80;25957;-83
2021/01/20 10:29:54;;;;;;;;;;;;;;;5.03;71.38;96742.01;1793514;79;25815;-89
2021/01/20 10:32:21;;;;;;;;;;;;;;;5.04;71.17;96739.14;1793173;79;25913;-93
2021/01/20 10:34:48;;;;;;;;;;;;;;;5.09;71.24;96738.55;1793541;80;26020;-85
2021/01/20 10:37:16;;;;;;;;;;;;;;;5.08;71.18;96727.02;1793373;80;27461;-87
2021/01/20 10:39:44;;;;;;;;;;;;;;;5.14;71.24;96728.10;1793379;80;26196;-88
2021/01/20 10:42:11;;;;;;;;;;;;;;;5.17;71.03;96737.09;1793246;80;25318;-83
2021/01/20 10:44:38;;;;;;;;;;;;;;;5.20;71.10;96736.67;1793441;80;25766;-88
2021/01/20 10:47:05;;;;;;;;;;;;;;;5.23;70.96;96729.61;1793427;80;25866;-86
2021/01/20 10:49:32;;;;;;;;;;;;;;;5.20;70.71;96729.98;1793408;79;27550;-87
2021/01/20 10:52:01;;;;;;;;;;;;;;;5.26;70.75;96732.41;1793344;79;25754;-88
2021/01/20 10:54:28;;;;;;;;;;;;;;;5.28;70.54;96721.84;1793272;79;25676;-88
2021/01/20 10:56:55;;;;;;;;;;;;;;;5.27;70.54;96719.35;1784494;80;25721;-87
2021/01/20 10:59:22;;;;;;;;;;;;;;;5.35;70.59;96717.34;1773558;79;25733;-86
2021/01/20 11:01:49;;;;;;;;;;;;;;;5.43;70.57;96709.16;1771470;81;28515;-84
2021/01/20 11:04:17;;;;;;;;;;;;;;;5.43;70.31;96719.86;1771680;80;25334;-85
2021/01/20 11:06:44;;;;;;;;;;;;;;;5.46;70.35;96713.80;1770353;80;25801;-87
2021/01/20 11:09:11;;;;;;;;;;;;;;;5.48;70.21;96711.26;1769078;81;26454;-84
2021/01/20 11:11:38;;;;;;;;;;;;;;;5.46;70.18;96712.47;1763131;81;25818;-88
2021/01/20 11:14:05;;;;;;;;;;;;;;;5.43;70.16;96709.70;1767715;80;28457;-87
2021/01/20 11:16:32;;;;;;;;;;;;;;;5.46;70.24;96717.82;1771771;80;26063;-84
2021/01/20 11:18:59;;;;;;;;;;;;;;;5.49;70.24;96700.87;1766492;81;26512;-88
2021/01/20 11:21:26;;;;;;;;;;;;;;;5.48;69.97;96705.08;1766724;80;26528;-86
2021/01/20 11:23:53;;;;;;;;;;;;;;;5.47;70.00;96708.77;1756846;81;25699;-87
2021/01/20 11:26:20;;;;;;;;;;;;;;;5.46;69.97;96707.94;1758568;81;28461;-86
2021/01/20 11:28:47;;;;;;;;;;;;;;;5.48;69.92;96710.42;1758026;81;25687;-88
2021/01/20 11:31:14;;;;;;;;;;;;;;;5.39;69.94;96709.25;1761564;81;25827;-84
2021/01/20 11:33:41;;;;;;;;;;;;;;;5.43;69.98;96705.68;1762170;81;26461;-88
2021/01/20 11:36:08;;;;;;;;;;;;;;;5.38;69.85;96700.91;1759282;81;25884;-90
2021/01/20 11:38:36;;;;;;;;;;;;;;;5.40;69.90;96704.22;1763461;81;27495;-90
2021/01/20 11:41:03;;;;;;;;;;;;;;;5.44;69.94;96705.46;1768173;81;25828;-93
2021/01/20 11:43:30;;;;;;;;;;;;;;;5.44;69.72;96700.11;1755902;81;26278;-93
2021/01/20 11:45:59;;;;;;;;;;;;;;;5.44;69.81;96700.61;1759609;81;25839;-81
2021/01/20 11:48:26;;;;;;;;;;;;;;;5.47;69.76;96702.08;1751677;81;25776;-89
2021/01/20 11:50:53;;;;;;;;;;;;;;;5.46;69.71;96691.88;1766417;80;27506;-91
2021/01/20 11:53:20;;;;;;;;;;;;;;;5.48;69.61;96683.66;1769887;81;25737;-91
2021/01/20 11:55:48;;;;;;;;;;;;;;;5.53;69.62;96689.27;1748824;81;25797;-92
2021/01/20 11:58:15;;;;;;;;;;;;;;;5.63;69.70;96684.38;1768451;81;25813;-93
2021/01/20 12:00:42;;;;;;;;;;;;;;;5.76;69.60;96681.77;1768870;81;25802;-89
2021/01/20 12:03:09;;;;;;;;;;;;;;;5.82;69.38;96685.48;1754129;81;27614;-93
2021/01/20 12:05:36;;;;;;;;;;;;;;;5.91;69.34;96683.83;1749765;81;26298;-93
2021/01/20 12:08:03;;;;;;;;;;;;;;;6.00;69.24;96679.95;1785240;79;25829;-90
2021/01/20 12:10:30;;;;;;;;;;;;;;;6.05;69.14;96681.49;1758034;80;25672;-89
2021/01/20 12:12:58;;;;;;;;;;;;;;;6.14;69.07;96690.20;1760736;80;25788;-91
2021/01/20 12:15:25;;;;;;;;;;;;;;;6.23;68.82;96690.84;1770920;79;27497;-92
2021/01/20 12:17:52;;;;;;;;;;;;;;;6.24;68.79;96685.28;1780082;79;25749;-90
2021/01/20 12:20:19;;;;;;;;;;;;;;;6.33;68.72;96681.39;1776484;79;25972;-90
2021/01/20 12:22:46;;;;;;;;;;;;;;;6.45;68.82;96686.47;1797981;79;25825;-88
2021/01/20 12:25:14;;;;;;;;;;;;;;;6.51;68.21;96682.16;1797501;79;25726;-91
2021/01/20 12:27:41;;;;;;;;;;;;;;;6.53;68.39;96681.93;1775585;79;27491;-92
2021/01/20 12:30:09;;;;;;;;;;;;;;;6.60;68.25;96685.47;1797591;79;26371;-91
2021/01/20 12:32:36;;;;;;;;;;;;;;;6.74;67.87;96675.91;1792431;79;25326;-90
2021/01/20 12:35:05;;;;;;;;;;;;;;;7.04;68.35;96674.14;1782494;79;25767;-92
2021/01/20 12:37:32;;;;;;;;;;;;;;;7.39;68.31;96677.41;1797377;79;25753;-88
2021/01/20 12:39:59;;;;;;;;;;;;;;;7.63;67.77;96664.66;1797231;79;27694;-84
2021/01/20 12:42:26;;;;;;;;;;;;;;;7.79;67.35;96668.23;1796012;79;26105;-83
2021/01/20 12:44:53;;;;;;;;;;;;;;;7.94;66.98;96670.67;1780061;79;25825;-85
2021/01/20 12:47:22;;;;;;;;;;;;;;;8.05;66.46;96670.00;1780082;79;25695;-86
2021/01/20 12:49:49;;;;;;;;;;;;;;;8.22;66.51;96673.84;1789372;79;25972;-84
2021/01/20 12:52:16;;;;;;;;;;;;;;;8.35;65.86;96670.81;1799719;79;27746;-85
2021/01/20 12:54:44;;;;;;;;;;;;;;;8.37;65.54;96664.70;1784619;79;25886;-83
2021/01/20 12:57:11;;;;;;;;;;;;;;;8.43;65.23;96661.17;1783770;79;26285;-85
2021/01/20 12:59:38;;;;;;;;;;;;;;;8.50;65.20;96666.80;1792026;79;25815;-84
2021/01/20 13:02:06;;;;;;;;;;;;;;;8.81;65.16;96667.34;1783649;79;25817;-85
2021/01/20 13:04:33;;;;;;;;;;;;;;;8.97;64.54;96662.75;1787848;79;27492;-83
2021/01/20 13:07:00;;;;;;;;;;;;;;;9.04;64.11;96662.70;1789769;79;25718;-86